This is the latest recevied weather packets stored in our database for station/object 9M4RBN-3. If no packets are shown the sender has not sent any weather packets the latest 10 day(s).
| Time | Temp. | Humidity | Pressure | Rain* | Wind** | Luminosity | Snow |
|---|---|---|---|---|---|---|---|
| 1778105204 | 24.44° C | 44% | 1013 hPa | - | - | - | - |
| 1778104304 | 24.44° C | 44% | 1012.8 hPa | - | - | - | - |
| 1778103404 | 25° C | 43% | 1013 hPa | - | - | - | - |
| 1778102504 | 25° C | 43% | 1012.9 hPa | - | - | - | - |
| 1778101604 | 25.56° C | 43% | 1012.7 hPa | - | - | - | - |
| 1778100704 | 26.11° C | 44% | 1012.8 hPa | - | - | - | - |
| 1778099804 | 26.67° C | 46% | 1012.8 hPa | - | - | - | - |
| 1778098904 | 27.22° C | 54% | 1012.8 hPa | - | - | - | - |
| 1778098004 | 27.78° C | 65% | 1012.9 hPa | - | - | - | - |
| 1778097104 | 27.78° C | 65% | 1013 hPa | - | - | - | - |
| 1778096204 | 27.78° C | 65% | 1013.1 hPa | - | - | - | - |
| 1778095304 | 27.78° C | 65% | 1013.1 hPa | - | - | - | - |
| 1778094404 | 27.78° C | 64% | 1013.1 hPa | - | - | - | - |
| 1778093503 | 27.78° C | 64% | 1013.2 hPa | - | - | - | - |
| 1778092603 | 27.78° C | 64% | 1013.3 hPa | - | - | - | - |
| 1778091703 | 27.78° C | 64% | 1013.6 hPa | - | - | - | - |
| 1778090803 | 27.78° C | 63% | 1013.8 hPa | - | - | - | - |
| 1778089904 | 27.78° C | 62% | 1013.9 hPa | - | - | - | - |
| 1778089003 | 27.78° C | 61% | 1014 hPa | - | - | - | - |
| 1778088103 | 27.22° C | 60% | 1014.1 hPa | - | - | - | - |
| 1778087203 | 27.22° C | 59% | 1014.3 hPa | - | - | - | - |
| 1778086303 | 26.67° C | 58% | 1014.5 hPa | - | - | - | - |
| 1778085403 | 26.67° C | 55% | 1014.7 hPa | - | - | - | - |
| 1778084503 | 26.11° C | 52% | 1015 hPa | - | - | - | - |
| 1778083603 | 25° C | 43% | 1015.1 hPa | - | - | - | - |
* Rain since midnight (hover to see other rain measurements)
** Current wind speed in m/s (hover to see current wind gust speed)